Patuxent River, MD

1:18 PM EDT on July 06, 2015 (GMT -0400)
APRSWXNET | | Change Station
CLOSE
Current Station
Personal Weather Station
Location: Lexington Park, MD
Elevation: 78 ft
Nearby Weather Stations

Elev 78 ft 38.25 °N, 76.45 °W | Updated 19 minutes ago

Overcast
Overcast
85 °F
Feels Like 93 °F
N
2
Wind Variable Wind from SSE
Gusts 0.0 mph

Today
High -- | Low -- °F
--% Chance of Precip.
Yesterday
High -- | Low -- °F
Precip. -- in
5:48 AM 8:32 PM
Waning Gibbous, 74% visible
Pressure 30.11 in
Visibility 10.0 miles
Clouds Scattered Clouds 2400 ft
Scattered Clouds 3200 ft
Overcast 25000 ft
Heat Index 93 °F
Dew Point 74 °F
Humidity 70%
Rainfall in
Snow Depth Not available.
UV 4 out of 12
Pollen .60 out of 12
Air Quality Not available.
Flu Activity Not available.
METAR KNHK 061652Z 14011KT 10SM SCT024 SCT032 OVC250 28/24 A3011 RMK AO2 SLP195 T02830239 $

More Conditions Fewer Conditions

Pressure 30.11 in
Visibility 10.0 miles
Clouds Scattered Clouds 2400 ft
Scattered Clouds 3200 ft
Overcast 25000 ft
Heat Index 93 °F
Dew Point 74 °F
Humidity 70%
Rainfall in
Snow Depth Not available.
UV 4 out of 12
Pollen .60 out of 12
Air Quality Not available.
Flu Activity Not available.
METAR KNHK 061652Z 14011KT 10SM SCT024 SCT032 OVC250 28/24 A3011 RMK AO2 SLP195 T02830239 $

More Conditions Fewer Conditions

10-Day Weather Forecast

×

Almanac

Astronomy

Jul. 06, 2015 Rise Set
Actual Time
Civil Twilight
Nautical Twilight
Astronomical Twilight
Moon
Length of Visible Light
Length of Day
Tomorrow will be .
, % of the Moon is Illuminated

Today's Extremes

State Highs State Lows

Community

WunderPhotos

Upload Photos

1,835,604 photos uploaded!

WunderBlogs® & News

Nearby

Air Quality

  Air Quality AQ Index Pollutant
Not available.

Snow Depth

Station Depth Elevation

Earthquake Activity

City Distance Mag. Time & Date
Minimum magnitude displayed is 2.5.

Coastal Water Temperatures

Place Temperature

Stations

Nearby Weather Stations

Station Location Temp. Windchill Dew Point Humidity Wind Precip. Elev Updated Type